sensor_id;sensor_type;location;lat;lon;timestamp;P1;durP1;ratioP1;P2;durP2;ratioP2
60430;SDS011;46285;45.122;20.726;2024-03-23T01:03:12;56.50;;;37.10;;
60430;SDS011;46285;45.122;20.726;2024-03-23T01:13:14;56.78;;;37.05;;
60430;SDS011;46285;45.122;20.726;2024-03-23T01:23:16;45.15;;;31.58;;
60430;SDS011;46285;45.122;20.726;2024-03-23T01:33:18;49.25;;;31.77;;
60430;SDS011;46285;45.122;20.726;2024-03-23T01:43:20;43.03;;;28.65;;
60430;SDS011;46285;45.122;20.726;2024-03-23T01:53:22;44.72;;;29.55;;
60430;SDS011;46285;45.122;20.726;2024-03-23T02:03:25;46.75;;;29.88;;
60430;SDS011;46285;45.122;20.726;2024-03-23T02:13:27;50.75;;;35.20;;
60430;SDS011;46285;45.122;20.726;2024-03-23T02:23:30;52.67;;;36.80;;
60430;SDS011;46285;45.122;20.726;2024-03-23T02:33:32;59.95;;;39.22;;
60430;SDS011;46285;45.122;20.726;2024-03-23T02:43:35;69.47;;;42.35;;
60430;SDS011;46285;45.122;20.726;2024-03-23T02:53:37;58.42;;;40.75;;
60430;SDS011;46285;45.122;20.726;2024-03-23T03:03:39;68.15;;;42.58;;
60430;SDS011;46285;45.122;20.726;2024-03-23T03:13:41;56.15;;;37.60;;
60430;SDS011;46285;45.122;20.726;2024-03-23T03:23:43;55.00;;;36.45;;
60430;SDS011;46285;45.122;20.726;2024-03-23T03:33:45;53.25;;;33.67;;
60430;SDS011;46285;45.122;20.726;2024-03-23T03:43:47;48.03;;;33.63;;
60430;SDS011;46285;45.122;20.726;2024-03-23T03:53:49;46.38;;;30.00;;
60430;SDS011;46285;45.122;20.726;2024-03-23T04:03:51;45.42;;;31.00;;
60430;SDS011;46285;45.122;20.726;2024-03-23T04:13:52;43.53;;;30.42;;
60430;SDS011;46285;45.122;20.726;2024-03-23T04:23:54;40.63;;;28.20;;
60430;SDS011;46285;45.122;20.726;2024-03-23T04:33:56;40.08;;;26.35;;
60430;SDS011;46285;45.122;20.726;2024-03-23T04:43:58;37.80;;;25.52;;
60430;SDS011;46285;45.122;20.726;2024-03-23T04:54:00;38.28;;;25.35;;
60430;SDS011;46285;45.122;20.726;2024-03-23T05:04:06;40.60;;;26.17;;
60430;SDS011;46285;45.122;20.726;2024-03-23T05:14:08;37.08;;;24.98;;
60430;SDS011;46285;45.122;20.726;2024-03-23T05:24:10;37.83;;;25.65;;
60430;SDS011;46285;45.122;20.726;2024-03-23T05:34:12;31.33;;;20.55;;
60430;SDS011;46285;45.122;20.726;2024-03-23T05:44:14;32.00;;;20.88;;
60430;SDS011;46285;45.122;20.726;2024-03-23T05:54:16;28.48;;;18.38;;
60430;SDS011;46285;45.122;20.726;2024-03-23T06:04:18;27.90;;;19.48;;
60430;SDS011;46285;45.122;20.726;2024-03-23T06:14:20;26.55;;;17.35;;
60430;SDS011;46285;45.122;20.726;2024-03-23T06:24:22;45.63;;;28.92;;
60430;SDS011;46285;45.122;20.726;2024-03-23T06:34:25;56.10;;;36.90;;
60430;SDS011;46285;45.122;20.726;2024-03-23T06:44:28;37.83;;;26.75;;
60430;SDS011;46285;45.122;20.726;2024-03-23T06:54:30;27.73;;;21.50;;
60430;SDS011;46285;45.122;20.726;2024-03-23T07:04:32;35.03;;;19.20;;
60430;SDS011;46285;45.122;20.726;2024-03-23T07:14:34;24.67;;;15.70;;
60430;SDS011;46285;45.122;20.726;2024-03-23T07:24:35;27.35;;;15.88;;
60430;SDS011;46285;45.122;20.726;2024-03-23T07:34:40;20.83;;;14.38;;
60430;SDS011;46285;45.122;20.726;2024-03-23T07:44:44;26.97;;;15.13;;
60430;SDS011;46285;45.122;20.726;2024-03-23T07:54:47;24.92;;;14.02;;
60430;SDS011;46285;45.122;20.726;2024-03-23T08:04:49;23.27;;;14.20;;
60430;SDS011;46285;45.122;20.726;2024-03-23T08:14:51;20.77;;;12.63;;
60430;SDS011;46285;45.122;20.726;2024-03-23T08:24:54;18.80;;;12.25;;
60430;SDS011;46285;45.122;20.726;2024-03-23T08:34:55;19.33;;;13.57;;
60430;SDS011;46285;45.122;20.726;2024-03-23T08:44:57;21.05;;;14.23;;
60430;SDS011;46285;45.122;20.726;2024-03-23T08:54:59;17.55;;;12.10;;
60430;SDS011;46285;45.122;20.726;2024-03-23T09:05:02;19.20;;;12.35;;
60430;SDS011;46285;45.122;20.726;2024-03-23T09:15:10;17.27;;;12.05;;
60430;SDS011;46285;45.122;20.726;2024-03-23T09:25:12;16.50;;;11.43;;
60430;SDS011;46285;45.122;20.726;2024-03-23T09:35:14;23.65;;;11.38;;
60430;SDS011;46285;45.122;20.726;2024-03-23T09:45:20;17.83;;;10.32;;
60430;SDS011;46285;45.122;20.726;2024-03-23T09:55:22;19.38;;;11.27;;
60430;SDS011;46285;45.122;20.726;2024-03-23T10:05:25;16.48;;;11.00;;
60430;SDS011;46285;45.122;20.726;2024-03-23T10:15:28;14.70;;;8.80;;
60430;SDS011;46285;45.122;20.726;2024-03-23T10:25:30;16.77;;;8.70;;
60430;SDS011;46285;45.122;20.726;2024-03-23T10:35:32;18.05;;;8.55;;
60430;SDS011;46285;45.122;20.726;2024-03-23T10:45:34;11.73;;;6.93;;
60430;SDS011;46285;45.122;20.726;2024-03-23T10:55:36;14.65;;;8.70;;
60430;SDS011;46285;45.122;20.726;2024-03-23T11:05:46;10.82;;;6.45;;
60430;SDS011;46285;45.122;20.726;2024-03-23T11:15:48;14.32;;;7.68;;
60430;SDS011;46285;45.122;20.726;2024-03-23T11:25:50;15.15;;;9.13;;
60430;SDS011;46285;45.122;20.726;2024-03-23T11:35:52;18.92;;;13.07;;
60430;SDS011;46285;45.122;20.726;2024-03-23T11:45:56;40.73;;;26.73;;
60430;SDS011;46285;45.122;20.726;2024-03-23T11:55:59;11.10;;;6.73;;
60430;SDS011;46285;45.122;20.726;2024-03-23T12:06:04;9.23;;;5.72;;
60430;SDS011;46285;45.122;20.726;2024-03-23T12:16:12;11.20;;;7.90;;
60430;SDS011;46285;45.122;20.726;2024-03-23T12:26:17;11.55;;;5.30;;
60430;SDS011;46285;45.122;20.726;2024-03-23T12:36:20;9.45;;;4.72;;
60430;SDS011;46285;45.122;20.726;2024-03-23T12:46:23;10.48;;;3.42;;
60430;SDS011;46285;45.122;20.726;2024-03-23T12:56:28;8.93;;;2.28;;
60430;SDS011;46285;45.122;20.726;2024-03-23T13:06:31;7.32;;;3.05;;
60430;SDS011;46285;45.122;20.726;2024-03-23T13:16:35;6.38;;;2.70;;
60430;SDS011;46285;45.122;20.726;2024-03-23T13:26:37;6.90;;;2.70;;
60430;SDS011;46285;45.122;20.726;2024-03-23T13:36:39;11.55;;;2.92;;
60430;SDS011;46285;45.122;20.726;2024-03-23T13:46:42;8.20;;;3.30;;
60430;SDS011;46285;45.122;20.726;2024-03-23T13:56:44;10.00;;;3.65;;
60430;SDS011;46285;45.122;20.726;2024-03-23T14:06:46;8.15;;;4.32;;
60430;SDS011;46285;45.122;20.726;2024-03-23T14:16:48;8.25;;;4.15;;
60430;SDS011;46285;45.122;20.726;2024-03-23T14:26:50;9.77;;;4.30;;
60430;SDS011;46285;45.122;20.726;2024-03-23T14:36:52;9.63;;;4.13;;
60430;SDS011;46285;45.122;20.726;2024-03-23T14:46:58;12.50;;;4.18;;
60430;SDS011;46285;45.122;20.726;2024-03-23T14:57:02;6.83;;;3.20;;
60430;SDS011;46285;45.122;20.726;2024-03-23T15:07:05;12.68;;;5.22;;
60430;SDS011;46285;45.122;20.726;2024-03-23T15:17:06;13.88;;;5.25;;
60430;SDS011;46285;45.122;20.726;2024-03-23T15:27:10;9.87;;;4.40;;
60430;SDS011;46285;45.122;20.726;2024-03-23T15:37:11;18.05;;;9.13;;
60430;SDS011;46285;45.122;20.726;2024-03-23T15:47:14;49.00;;;36.00;;
60430;SDS011;46285;45.122;20.726;2024-03-23T15:57:16;10.45;;;4.88;;
60430;SDS011;46285;45.122;20.726;2024-03-23T16:07:18;32.72;;;21.15;;
60430;SDS011;46285;45.122;20.726;2024-03-23T16:17:21;19.05;;;10.10;;
60430;SDS011;46285;45.122;20.726;2024-03-23T16:27:23;26.13;;;18.73;;
60430;SDS011;46285;45.122;20.726;2024-03-23T16:37:26;186.50;;;76.60;;
60430;SDS011;46285;45.122;20.726;2024-03-23T16:47:28;411.92;;;219.73;;
60430;SDS011;46285;45.122;20.726;2024-03-23T16:57:30;183.93;;;106.57;;
60430;SDS011;46285;45.122;20.726;2024-03-23T17:07:32;156.82;;;86.97;;
60430;SDS011;46285;45.122;20.726;2024-03-23T17:17:34;152.95;;;106.82;;
60430;SDS011;46285;45.122;20.726;2024-03-23T17:27:36;170.77;;;108.72;;
60430;SDS011;46285;45.122;20.726;2024-03-23T17:37:39;112.93;;;72.35;;
60430;SDS011;46285;45.122;20.726;2024-03-23T17:47:41;94.50;;;54.40;;
60430;SDS011;46285;45.122;20.726;2024-03-23T17:57:44;101.03;;;55.20;;
60430;SDS011;46285;45.122;20.726;2024-03-23T18:07:46;83.05;;;49.63;;
60430;SDS011;46285;45.122;20.726;2024-03-23T18:17:48;73.25;;;44.53;;
60430;SDS011;46285;45.122;20.726;2024-03-23T18:27:53;59.55;;;39.25;;
60430;SDS011;46285;45.122;20.726;2024-03-23T18:37:55;47.80;;;27.77;;
60430;SDS011;46285;45.122;20.726;2024-03-23T18:47:57;26.52;;;17.55;;
60430;SDS011;46285;45.122;20.726;2024-03-23T18:58:00;21.77;;;14.27;;
60430;SDS011;46285;45.122;20.726;2024-03-23T19:08:02;24.70;;;16.13;;
60430;SDS011;46285;45.122;20.726;2024-03-23T19:18:04;30.65;;;17.10;;
60430;SDS011;46285;45.122;20.726;2024-03-23T19:28:07;39.72;;;26.92;;
60430;SDS011;46285;45.122;20.726;2024-03-23T19:38:11;38.75;;;19.13;;
60430;SDS011;46285;45.122;20.726;2024-03-23T19:48:13;51.80;;;25.67;;
60430;SDS011;46285;45.122;20.726;2024-03-23T19:58:15;23.33;;;14.20;;
60430;SDS011;46285;45.122;20.726;2024-03-23T20:08:17;62.88;;;42.75;;
60430;SDS011;46285;45.122;20.726;2024-03-23T20:18:19;77.32;;;52.83;;
60430;SDS011;46285;45.122;20.726;2024-03-23T20:28:21;40.63;;;28.05;;
60430;SDS011;46285;45.122;20.726;2024-03-23T20:38:24;43.20;;;24.27;;
60430;SDS011;46285;45.122;20.726;2024-03-23T20:48:30;24.45;;;14.40;;
60430;SDS011;46285;45.122;20.726;2024-03-23T20:58:38;27.88;;;19.48;;
60430;SDS011;46285;45.122;20.726;2024-03-23T21:08:40;34.38;;;22.52;;
60430;SDS011;46285;45.122;20.726;2024-03-23T21:18:42;30.35;;;18.15;;
60430;SDS011;46285;45.122;20.726;2024-03-23T21:28:45;36.67;;;24.42;;
60430;SDS011;46285;45.122;20.726;2024-03-23T21:38:46;221.88;;;82.18;;
60430;SDS011;46285;45.122;20.726;2024-03-23T21:48:49;24.05;;;16.20;;
60430;SDS011;46285;45.122;20.726;2024-03-23T21:58:53;39.25;;;23.95;;
60430;SDS011;46285;45.122;20.726;2024-03-23T22:08:55;40.30;;;24.67;;
60430;SDS011;46285;45.122;20.726;2024-03-23T22:18:58;60.92;;;32.22;;
60430;SDS011;46285;45.122;20.726;2024-03-23T22:29:00;63.35;;;34.78;;
60430;SDS011;46285;45.122;20.726;2024-03-23T22:39:01;26.58;;;15.02;;
60430;SDS011;46285;45.122;20.726;2024-03-23T22:49:05;20.15;;;8.95;;
60430;SDS011;46285;45.122;20.726;2024-03-23T22:59:07;31.85;;;10.90;;
60430;SDS011;46285;45.122;20.726;2024-03-23T23:09:09;22.02;;;3.95;;
60430;SDS011;46285;45.122;20.726;2024-03-23T23:19:12;22.25;;;4.47;;
60430;SDS011;46285;45.122;20.726;2024-03-23T23:29:15;12.55;;;3.08;;
60430;SDS011;46285;45.122;20.726;2024-03-23T23:39:17;11.85;;;2.70;;
60430;SDS011;46285;45.122;20.726;2024-03-23T23:49:20;10.18;;;2.08;;
60430;SDS011;46285;45.122;20.726;2024-03-23T23:59:22;10.13;;;2.00;;
